Terminal Aerodrome Forecast
Issued by NWS

Home | Current Version | Previous Version | Text Only | Print | Product List | Glossary On
Versions: 1 2 3 4 5 6 7 8 9 10 11 12 13 14 15 16 17 18 19 20 21 22 23 24 25 26 27 28 29 30 31 32 33 34 35 36 37 38 39 40 41 42 43 44 45 46 47
000
FTUS43 KDMX 080723 AAC
TAFOTM
TAF AMD
KOTM 080723Z 0807/0906 32020G26KT 6SM -SN OVC020
      TEMPO 0807/0811 3SM -SN SCT010 OVC014
     FM081100 32022G32KT 2SM -SHSN BLSN SCT006 OVC015
     FM082300 33021G30KT 3SM BLSN OVC012
     FM090400 33018G26KT P6SM OVC028=

USA.gov is the U.S. government's official web portal to all federal, state and local government web resources and services.